createdAt,value
2023-02-11T00:01:23.184Z,30.13
2023-02-11T00:03:51.152Z,39.78
2023-02-11T00:06:20.548Z,49.78
2023-02-11T00:08:48.341Z,46.63
2023-02-11T00:11:17.572Z,43.45
2023-02-11T00:13:46.582Z,35.53
2023-02-11T00:16:16.461Z,30.92
2023-02-11T00:18:47.360Z,39.40
2023-02-11T00:21:17.262Z,40.13
2023-02-11T00:23:47.486Z,38.83
2023-02-11T00:26:16.795Z,35.30
2023-02-11T00:28:45.910Z,46.30
2023-02-11T00:31:14.756Z,39.55
2023-02-11T00:33:43.423Z,53.20
2023-02-11T00:36:15.390Z,47.20
2023-02-11T00:38:48.945Z,36.97
2023-02-11T00:41:17.338Z,45.87
2023-02-11T00:43:45.626Z,48.67
2023-02-11T00:46:14.176Z,38.53
2023-02-11T00:48:42.034Z,51.78
2023-02-11T00:51:10.235Z,49.80
2023-02-11T00:53:38.065Z,44.60
2023-02-11T00:56:07.831Z,45.67
2023-02-11T00:58:36.284Z,42.78
2023-02-11T01:01:04.408Z,43.72
2023-02-11T01:03:32.777Z,52.70
2023-02-11T01:06:00.595Z,36.35
2023-02-11T01:08:28.514Z,44.72
2023-02-11T01:10:59.095Z,54.58
2023-02-11T01:13:29.267Z,55.95
2023-02-11T01:15:57.235Z,47.95
2023-02-11T01:18:25.645Z,51.50
2023-02-11T01:20:53.842Z,45.40
2023-02-11T01:23:22.148Z,39.47
2023-02-11T01:25:51.454Z,45.90
2023-02-11T01:28:20.699Z,43.95
2023-02-11T01:30:50.200Z,44.75
2023-02-11T01:33:18.211Z,43.30
2023-02-11T01:35:46.528Z,39.50
2023-02-11T01:38:17.414Z,41.53
2023-02-11T01:40:50.379Z,43.95
2023-02-11T01:43:18.385Z,40.35
2023-02-11T01:46:01.656Z,40.50
2023-02-11T01:48:33.466Z,57.92
2023-02-11T01:51:05.823Z,46.25
2023-02-11T01:53:52.814Z,44.70
2023-02-11T01:56:39.571Z,48.13
2023-02-11T01:59:13.576Z,54.40
2023-02-11T02:04:13.565Z,50.60
2023-02-11T02:06:50.122Z,55.83
2023-02-11T02:09:23.162Z,66.20
2023-02-11T02:11:51.799Z,48.55
2023-02-11T02:14:20.342Z,49.28
2023-02-11T02:16:49.560Z,50.47
2023-02-11T02:20:05.250Z,44.67
2023-02-11T02:23:12.824Z,43.08
2023-02-11T02:26:11.574Z,41.17
2023-02-11T02:29:06.978Z,48.50
2023-02-11T02:31:51.109Z,49.35
2023-02-11T02:34:29.243Z,43.28
2023-02-11T02:37:04.764Z,51.20
2023-02-11T02:39:36.337Z,44.67
2023-02-11T02:42:05.622Z,35.53
2023-02-11T02:44:33.560Z,45.05
2023-02-11T02:47:01.961Z,43.38
2023-02-11T02:49:31.213Z,32.05
2023-02-11T02:52:27.116Z,35.70
2023-02-11T02:55:16.230Z,35.35
2023-02-11T02:58:10.000Z,26.85
2023-02-11T03:00:44.586Z,35.80
2023-02-11T03:03:22.881Z,19.35
2023-02-11T03:05:58.229Z,25.20
2023-02-11T03:08:31.541Z,27.95
2023-02-11T03:11:02.013Z,38.38
2023-02-11T03:13:33.962Z,36.78
2023-02-11T03:16:05.879Z,38.22
2023-02-11T03:18:37.280Z,33.53
2023-02-11T03:21:09.341Z,25.45
2023-02-11T03:23:41.051Z,24.15
2023-02-11T03:26:17.198Z,12.55
2023-02-11T03:28:52.375Z,15.68
2023-02-11T03:31:28.125Z,30.02
2023-02-11T03:34:02.267Z,39.80
2023-02-11T03:36:36.826Z,10.55
2023-02-11T03:39:06.970Z,12.18
2023-02-11T03:41:36.550Z,37.33
2023-02-11T03:44:05.586Z,34.35
2023-02-11T03:46:37.996Z,33.55
2023-02-11T03:49:10.007Z,28.13
2023-02-11T03:51:40.416Z,33.40
2023-02-11T03:54:12.869Z,31.50
2023-02-11T03:56:45.966Z,38.38
2023-02-11T03:59:13.852Z,35.70
2023-02-11T04:01:41.750Z,35.58
2023-02-11T04:04:09.467Z,31.52
2023-02-11T04:06:38.789Z,41.15
2023-02-11T04:09:06.941Z,39.72
2023-02-11T04:11:34.650Z,38.85
2023-02-11T04:14:02.378Z,41.65
2023-02-11T04:16:30.912Z,35.33
2023-02-11T04:18:59.085Z,35.75
2023-02-11T04:21:26.764Z,36.85
2023-02-11T04:23:55.816Z,35.55
2023-02-11T04:26:23.595Z,44.95
2023-02-11T04:28:51.372Z,47.70
2023-02-11T04:31:19.172Z,43.78
2023-02-11T04:33:46.986Z,42.08
2023-02-11T04:36:14.792Z,46.53
2023-02-11T04:38:42.885Z,47.97
2023-02-11T04:41:11.917Z,42.83
2023-02-11T04:43:39.636Z,41.65
2023-02-11T04:46:07.483Z,54.25
2023-02-11T04:48:35.633Z,45.72
2023-02-11T04:51:03.637Z,46.03
2023-02-11T04:53:31.361Z,43.63
2023-02-11T04:55:59.259Z,32.75
2023-02-11T04:58:28.414Z,47.33
2023-02-11T05:00:56.107Z,58.53
2023-02-11T05:03:23.923Z,49.92
2023-02-11T05:05:52.181Z,42.60
2023-02-11T05:08:20.279Z,42.70
2023-02-11T05:10:48.403Z,47.85
2023-02-11T05:13:16.304Z,38.20
2023-02-11T05:15:45.498Z,39.28
2023-02-11T05:18:14.805Z,46.00
2023-02-11T05:20:43.121Z,55.17
2023-02-11T05:23:11.253Z,49.67
2023-02-11T05:25:39.020Z,43.28
2023-02-11T05:28:07.209Z,47.63
2023-02-11T05:30:34.965Z,39.65
2023-02-11T05:33:04.177Z,42.10
2023-02-11T05:35:31.890Z,47.45
2023-02-11T05:37:59.649Z,42.53
2023-02-11T05:40:27.506Z,37.50
2023-02-11T05:42:55.175Z,36.80
2023-02-11T05:45:22.919Z,40.60
2023-02-11T05:47:50.600Z,42.00
2023-02-11T05:50:19.741Z,48.25
2023-02-11T05:52:47.885Z,40.58
2023-02-11T05:55:15.848Z,50.13
2023-02-11T05:57:43.666Z,38.90
2023-02-11T06:00:12.469Z,37.70
2023-02-11T06:02:40.672Z,46.13
2023-02-11T06:05:09.719Z,37.35
2023-02-11T06:07:38.848Z,41.70
2023-02-11T06:10:07.760Z,40.35
2023-02-11T06:12:35.914Z,45.08
2023-02-11T06:15:03.813Z,48.10
2023-02-11T06:17:31.662Z,40.65
2023-02-11T06:19:59.554Z,44.05
2023-02-11T06:22:27.648Z,40.17
2023-02-11T06:25:01.683Z,43.42
2023-02-11T06:27:29.981Z,37.83
2023-02-11T06:29:57.825Z,48.63
2023-02-11T06:32:42.924Z,45.72
2023-02-11T06:35:12.718Z,43.85
2023-02-11T06:37:40.773Z,48.67
2023-02-11T06:40:10.486Z,44.15
2023-02-11T06:42:39.592Z,42.92
2023-02-11T06:45:09.306Z,35.38
2023-02-11T06:47:37.124Z,42.50
2023-02-11T06:50:05.817Z,45.47
2023-02-11T06:52:34.227Z,47.75
2023-02-11T06:55:02.579Z,41.42
2023-02-11T06:57:32.795Z,52.67
2023-02-11T07:00:00.720Z,41.70
2023-02-11T07:02:28.499Z,49.95
2023-02-11T07:04:56.341Z,50.70
2023-02-11T07:07:24.205Z,40.70
2023-02-11T07:09:51.988Z,44.83
2023-02-11T07:12:19.710Z,49.33
2023-02-11T07:14:48.788Z,35.35
2023-02-11T07:17:16.631Z,44.35
2023-02-11T07:19:44.364Z,45.92
2023-02-11T07:22:12.189Z,39.20
2023-02-11T07:24:39.937Z,36.17
2023-02-11T07:27:07.743Z,43.75
2023-02-11T07:29:35.592Z,41.58
2023-02-11T07:32:04.792Z,42.70
2023-02-11T07:34:33.103Z,41.35
2023-02-11T07:37:00.919Z,44.17
2023-02-11T07:39:29.498Z,52.33
2023-02-11T07:41:58.343Z,44.60
2023-02-11T07:44:26.842Z,49.50
2023-02-11T07:46:54.602Z,40.63
2023-02-11T07:49:23.732Z,44.40
2023-02-11T07:51:52.179Z,56.42
2023-02-11T07:54:20.051Z,41.08
2023-02-11T07:56:47.825Z,37.20
2023-02-11T07:59:15.718Z,43.78
2023-02-11T08:01:43.499Z,44.90
2023-02-11T08:04:11.245Z,28.42
2023-02-11T08:06:43.301Z,45.90
2023-02-11T08:09:15.739Z,25.77
2023-02-11T08:11:44.046Z,22.80
2023-02-11T08:14:12.595Z,13.70
2023-02-11T08:16:40.884Z,21.23
2023-02-11T08:19:11.540Z,28.42
2023-02-11T08:21:41.783Z,27.60
2023-02-11T08:24:09.966Z,28.60
2023-02-11T08:26:38.690Z,39.85
2023-02-11T08:29:09.681Z,43.95
2023-02-11T08:31:39.660Z,42.65
2023-02-11T08:34:07.923Z,35.65
2023-02-11T08:36:37.701Z,39.53
2023-02-11T08:39:18.574Z,35.05
2023-02-11T08:41:48.756Z,29.05
2023-02-11T08:44:17.317Z,25.15
2023-02-11T08:46:45.973Z,22.70
2023-02-11T08:49:15.049Z,23.05
2023-02-11T08:51:42.969Z,20.92
2023-02-11T08:54:12.907Z,22.17
2023-02-11T08:56:41.499Z,26.40
2023-02-11T08:59:11.903Z,25.48
2023-02-11T09:01:39.736Z,25.40
2023-02-11T09:04:07.958Z,27.30
2023-02-11T09:06:35.770Z,26.17
2023-02-11T09:09:03.755Z,27.35
2023-02-11T09:11:35.446Z,21.02
2023-02-11T09:14:04.947Z,31.50
2023-02-11T09:16:35.085Z,27.33
2023-02-11T09:19:05.712Z,28.33
2023-02-11T09:21:33.543Z,25.63
2023-02-11T09:24:01.351Z,27.80
2023-02-11T09:26:30.837Z,27.75
2023-02-11T09:29:00.879Z,26.92
2023-02-11T09:31:31.030Z,26.98
2023-02-11T09:34:00.891Z,27.00
2023-02-11T09:36:30.476Z,27.08
2023-02-11T09:39:01.199Z,19.80
2023-02-11T09:41:50.606Z,21.42
2023-02-11T09:44:24.088Z,18.48
2023-02-11T09:46:57.128Z,18.73
2023-02-11T09:49:30.537Z,18.83
2023-02-11T09:52:04.422Z,22.40
2023-02-11T09:54:38.307Z,16.02
2023-02-11T09:57:23.012Z,15.45
2023-02-11T09:59:57.669Z,17.52
2023-02-11T10:02:31.761Z,21.67
2023-02-11T10:05:14.476Z,22.20
2023-02-11T10:07:49.684Z,17.08
2023-02-11T10:10:30.619Z,20.35
2023-02-11T10:13:15.639Z,8.30
2023-02-11T10:15:53.065Z,14.05
2023-02-11T10:18:47.498Z,15.77
2023-02-11T10:21:24.016Z,8.85
2023-02-11T10:23:55.703Z,14.55
2023-02-11T10:26:24.592Z,15.27
2023-02-11T10:28:54.934Z,17.65
2023-02-11T10:31:28.740Z,13.95
2023-02-11T10:34:01.098Z,15.60
2023-02-11T10:36:30.994Z,16.20
2023-02-11T10:38:59.761Z,17.30
2023-02-11T10:41:34.567Z,14.18
2023-02-11T10:44:02.711Z,16.05
2023-02-11T10:46:34.236Z,4.25
2023-02-11T10:49:03.471Z,14.52
2023-02-11T10:51:34.026Z,10.13
2023-02-11T10:54:14.479Z,13.82
2023-02-11T10:56:46.590Z,14.30
2023-02-11T10:59:22.183Z,17.75
2023-02-11T11:01:59.171Z,28.55
2023-02-11T11:04:40.745Z,18.33
2023-02-11T11:07:19.335Z,21.45
2023-02-11T11:09:55.658Z,8.32
2023-02-11T11:12:30.115Z,12.80
2023-02-11T11:15:01.286Z,15.95
2023-02-11T11:17:30.982Z,21.25
2023-02-11T11:20:24.744Z,16.38
2023-02-11T11:22:55.960Z,17.25
2023-02-11T11:25:26.655Z,18.05
2023-02-11T11:27:58.194Z,16.73
2023-02-11T11:30:33.550Z,9.82
2023-02-11T11:33:03.298Z,22.13
2023-02-11T11:35:33.970Z,19.73
2023-02-11T11:38:07.865Z,14.05
2023-02-11T11:40:36.727Z,16.45
2023-02-11T11:43:08.047Z,18.05
2023-02-11T11:45:36.066Z,17.17
2023-02-11T11:48:14.018Z,15.70
2023-02-11T11:50:45.855Z,18.13
2023-02-11T11:53:20.756Z,12.77
2023-02-11T11:55:54.539Z,13.60
2023-02-11T11:58:24.900Z,21.60
2023-02-11T12:01:01.670Z,15.85
2023-02-11T12:04:08.323Z,17.33
2023-02-11T12:06:44.437Z,21.83
2023-02-11T12:09:26.991Z,15.55
2023-02-11T12:12:26.638Z,13.93
2023-02-11T12:15:05.974Z,14.10
2023-02-11T12:17:52.645Z,15.25
2023-02-11T12:20:31.010Z,15.50
2023-02-11T12:23:15.485Z,21.23
2023-02-11T12:25:49.677Z,14.23
2023-02-11T12:28:29.407Z,20.30
2023-02-11T12:31:13.113Z,21.92
2023-02-11T12:34:29.999Z,12.83
2023-02-11T12:37:08.076Z,13.85
2023-02-11T12:39:47.860Z,19.05
2023-02-11T12:42:58.971Z,17.40
2023-02-11T12:45:43.042Z,15.13
2023-02-11T12:48:22.881Z,15.10
2023-02-11T12:50:59.272Z,19.48
2023-02-11T12:53:50.669Z,14.05
2023-02-11T12:56:24.259Z,19.60
2023-02-11T12:58:55.228Z,18.97
2023-02-11T13:01:27.539Z,19.02
2023-02-11T13:04:00.632Z,17.58
2023-02-11T13:06:32.042Z,17.92
2023-02-11T13:09:04.268Z,18.25
2023-02-11T13:11:38.712Z,18.73
2023-02-11T13:14:13.583Z,20.17
2023-02-11T13:16:43.493Z,23.95
2023-02-11T13:19:22.177Z,16.23
2023-02-11T13:22:04.418Z,17.92
2023-02-11T13:24:44.148Z,15.82
2023-02-11T13:27:31.263Z,20.42
2023-02-11T13:30:35.300Z,15.93
2023-02-11T13:33:17.639Z,17.02
2023-02-11T13:35:49.527Z,20.85
2023-02-11T13:38:21.544Z,10.10
2023-02-11T13:41:04.314Z,15.18
2023-02-11T13:43:33.965Z,14.00
2023-02-11T13:46:04.272Z,17.92
2023-02-11T13:48:36.121Z,16.45
2023-02-11T13:51:06.912Z,19.90
2023-02-11T13:53:46.974Z,13.70
2023-02-11T13:56:29.182Z,12.20
2023-02-11T13:58:59.605Z,18.08
2023-02-11T14:01:41.651Z,16.58
2023-02-11T14:04:42.159Z,17.27
2023-02-11T14:07:45.882Z,19.17
2023-02-11T14:10:47.488Z,19.73
2023-02-11T14:13:24.792Z,16.73
2023-02-11T14:16:05.805Z,16.55
2023-02-11T14:18:55.840Z,21.17
2023-02-11T14:21:32.358Z,15.07
2023-02-11T14:24:33.238Z,14.25
2023-02-11T14:27:06.016Z,21.88
2023-02-11T14:29:42.539Z,16.80
2023-02-11T14:32:23.235Z,15.02
2023-02-11T14:34:58.565Z,17.60
2023-02-11T14:37:50.342Z,18.42
2023-02-11T14:40:32.595Z,17.27
2023-02-11T14:43:10.774Z,16.35
2023-02-11T14:45:41.031Z,13.80
2023-02-11T14:48:16.118Z,16.65
2023-02-11T14:50:47.346Z,16.30
2023-02-11T14:53:17.963Z,19.35
2023-02-11T14:55:48.094Z,14.48
2023-02-11T14:58:18.399Z,18.75
2023-02-11T15:00:54.265Z,18.27
2023-02-11T15:03:30.849Z,21.92
2023-02-11T15:06:01.422Z,19.17
2023-02-11T15:08:31.397Z,20.35
2023-02-11T15:11:02.204Z,21.17
2023-02-11T15:13:32.816Z,17.25
2023-02-11T15:16:06.998Z,20.25
2023-02-11T15:18:38.787Z,21.08
2023-02-11T15:21:08.142Z,23.77
2023-02-11T15:23:38.954Z,22.83
2023-02-11T15:26:14.021Z,23.50
2023-02-11T15:28:51.941Z,18.92
2023-02-11T15:31:23.287Z,29.35
2023-02-11T15:33:51.582Z,24.80
2023-02-11T15:36:20.796Z,26.85
2023-02-11T15:39:19.997Z,23.08
2023-02-11T15:41:47.724Z,26.25
2023-02-11T15:44:30.221Z,28.20
2023-02-11T15:46:59.699Z,26.33
2023-02-11T15:49:28.062Z,29.15
2023-02-11T15:51:57.997Z,21.92
2023-02-11T15:54:29.367Z,24.40
2023-02-11T15:57:03.518Z,31.15
2023-02-11T15:59:35.348Z,25.75
2023-02-11T16:02:10.275Z,30.08
2023-02-11T16:04:38.672Z,32.60
2023-02-11T16:07:06.509Z,29.75
2023-02-11T16:09:36.262Z,30.77
2023-02-11T16:12:07.673Z,25.70
2023-02-11T16:14:39.109Z,25.10
2023-02-11T16:17:11.284Z,31.38
2023-02-11T16:19:45.150Z,28.70
2023-02-11T16:22:19.033Z,22.75
2023-02-11T16:24:49.634Z,29.52
2023-02-11T16:27:23.022Z,26.65
2023-02-11T16:29:52.165Z,27.45
2023-02-11T16:32:23.134Z,30.50
2023-02-11T16:34:51.492Z,27.70
2023-02-11T16:37:19.450Z,29.70
2023-02-11T16:39:47.812Z,26.33
2023-02-11T16:42:15.758Z,25.38
2023-02-11T16:44:43.483Z,27.25
2023-02-11T16:47:29.904Z,26.92
2023-02-11T16:49:58.422Z,32.88
2023-02-11T16:52:26.749Z,28.67
2023-02-11T16:54:54.656Z,29.40
2023-02-11T16:57:24.786Z,34.85
2023-02-11T16:59:53.446Z,24.42
2023-02-11T17:02:26.073Z,28.27
2023-02-11T17:04:56.782Z,28.60
2023-02-11T17:07:24.659Z,28.23
2023-02-11T17:09:52.835Z,19.02
2023-02-11T17:12:20.568Z,12.55
2023-02-11T17:14:48.345Z,24.42
2023-02-11T17:17:17.523Z,22.58
2023-02-11T17:19:47.752Z,13.65
2023-02-11T17:22:16.793Z,22.45
2023-02-11T17:24:44.581Z,23.63
2023-02-11T17:27:13.222Z,23.75
2023-02-11T17:29:40.977Z,20.85
2023-02-11T17:32:08.781Z,24.02
2023-02-11T17:34:36.520Z,21.15
2023-02-11T17:37:09.072Z,21.50
2023-02-11T17:39:38.894Z,18.25
2023-02-11T17:42:08.490Z,26.85
2023-02-11T17:44:36.375Z,26.48
2023-02-11T17:47:04.461Z,19.88
2023-02-11T17:49:32.205Z,12.48
2023-02-11T17:51:59.890Z,16.33
2023-02-11T17:54:27.752Z,28.92
2023-02-11T17:56:58.447Z,30.02
2023-02-11T17:59:28.468Z,19.67
2023-02-11T18:01:56.251Z,17.17
2023-02-11T18:04:24.045Z,32.20
2023-02-11T18:06:53.511Z,31.25
2023-02-11T18:09:21.617Z,32.03
2023-02-11T18:11:50.634Z,28.88
2023-02-11T18:14:20.199Z,29.92
2023-02-11T18:16:51.130Z,28.73
2023-02-11T18:19:19.425Z,29.30
2023-02-11T18:21:48.860Z,27.70
2023-02-11T18:24:17.203Z,15.18
2023-02-11T18:26:44.969Z,20.42
2023-02-11T18:29:12.698Z,28.13
2023-02-11T18:31:41.890Z,17.77
2023-02-11T18:34:10.790Z,20.67
2023-02-11T18:36:38.821Z,11.15
2023-02-11T18:39:07.074Z,24.40
2023-02-11T18:41:34.901Z,19.58
2023-02-11T18:44:04.461Z,29.85
2023-02-11T18:46:35.231Z,33.17
2023-02-11T18:49:04.326Z,29.92
2023-02-11T18:51:32.474Z,28.33
2023-02-11T18:54:01.250Z,35.35
2023-02-11T18:56:29.146Z,31.38
2023-02-11T18:58:58.290Z,29.05
2023-02-11T19:01:27.851Z,31.75
2023-02-11T19:03:57.198Z,30.73
2023-02-11T19:06:27.894Z,30.98
2023-02-11T19:08:59.525Z,34.60
2023-02-11T19:11:42.860Z,48.30
2023-02-11T19:14:11.343Z,50.97
2023-02-11T19:16:39.947Z,51.85
2023-02-11T19:19:08.667Z,52.08
2023-02-11T19:21:37.976Z,44.42
2023-02-11T19:24:08.154Z,43.97
2023-02-11T19:26:37.000Z,38.17
2023-02-11T19:29:05.422Z,35.33
2023-02-11T19:31:33.359Z,37.40
2023-02-11T19:34:01.519Z,36.25
2023-02-11T19:36:29.919Z,36.35
2023-02-11T19:39:00.235Z,27.17
2023-02-11T19:41:28.275Z,33.13
2023-02-11T19:43:56.957Z,35.83
2023-02-11T19:46:26.366Z,36.92
2023-02-11T19:48:55.441Z,39.53
2023-02-11T19:51:23.334Z,37.55
2023-02-11T19:53:51.944Z,36.20
2023-02-11T19:56:22.341Z,38.42
2023-02-11T19:58:50.159Z,40.38
2023-02-11T20:01:19.940Z,36.35
2023-02-11T20:03:50.400Z,37.63
2023-02-11T20:06:21.577Z,21.83
2023-02-11T20:08:49.275Z,26.92
2023-02-11T20:11:18.376Z,34.30
2023-02-11T20:13:49.144Z,24.38
2023-02-11T20:16:22.161Z,37.35
2023-02-11T20:18:50.990Z,21.55
2023-02-11T20:21:21.572Z,34.40
2023-02-11T20:23:50.660Z,25.23
2023-02-11T20:26:24.699Z,25.02
2023-02-11T20:28:55.735Z,34.03
2023-02-11T20:31:24.897Z,40.80
2023-02-11T20:33:52.956Z,45.53
2023-02-11T20:36:23.471Z,39.20
2023-02-11T20:38:52.039Z,36.53
2023-02-11T20:41:22.289Z,35.97
2023-02-11T20:43:55.779Z,43.22
2023-02-11T20:46:28.073Z,47.63
2023-02-11T20:48:57.580Z,36.60
2023-02-11T20:51:27.835Z,41.53
2023-02-11T20:53:55.819Z,44.10
2023-02-11T20:56:25.799Z,42.58
2023-02-11T20:58:54.452Z,47.95
2023-02-11T21:01:26.916Z,47.13
2023-02-11T21:03:57.043Z,44.97
2023-02-11T21:06:26.353Z,49.25
2023-02-11T21:08:54.972Z,45.13
2023-02-11T21:11:22.889Z,48.15
2023-02-11T21:13:51.066Z,49.03
2023-02-11T21:16:22.190Z,57.15
2023-02-11T21:18:52.200Z,54.58
2023-02-11T21:21:21.016Z,50.78
2023-02-11T21:23:49.247Z,47.92
2023-02-11T21:26:17.985Z,52.30
2023-02-11T21:28:48.649Z,51.80
2023-02-11T21:31:21.330Z,52.60
2023-02-11T21:33:50.969Z,46.60
2023-02-11T21:36:19.148Z,42.42
2023-02-11T21:38:46.944Z,47.85
2023-02-11T21:41:14.744Z,54.08
2023-02-11T21:43:42.584Z,48.55
2023-02-11T21:46:13.150Z,45.88
2023-02-11T21:48:41.183Z,50.38
2023-02-11T21:51:17.197Z,49.13
2023-02-11T21:53:45.179Z,47.38
2023-02-11T21:56:14.735Z,46.03
2023-02-11T21:58:42.701Z,56.92
2023-02-11T22:01:15.444Z,49.25
2023-02-11T22:03:43.268Z,50.67
2023-02-11T22:06:13.186Z,51.97
2023-02-11T22:08:42.635Z,51.25
2023-02-11T22:11:12.204Z,43.75
2023-02-11T22:13:41.083Z,55.35
2023-02-11T22:16:10.992Z,42.30
2023-02-11T22:18:39.759Z,40.53
2023-02-11T22:21:09.063Z,45.13
2023-02-11T22:23:37.901Z,44.78
2023-02-11T22:26:09.528Z,40.65
2023-02-11T22:28:38.932Z,49.20
2023-02-11T22:31:07.080Z,45.92
2023-02-11T22:33:35.190Z,47.53
2023-02-11T22:36:05.785Z,50.92
2023-02-11T22:38:34.458Z,47.33
2023-02-11T22:41:08.627Z,48.53
2023-02-11T22:43:36.392Z,55.75
2023-02-11T22:46:05.488Z,44.97
2023-02-11T22:48:33.384Z,46.78
2023-02-11T22:51:05.385Z,39.63
2023-02-11T22:53:33.331Z,45.83
2023-02-11T22:56:04.445Z,52.85
2023-02-11T22:58:33.945Z,46.60
2023-02-11T23:01:01.740Z,39.72
2023-02-11T23:03:31.787Z,44.65
2023-02-11T23:06:01.280Z,42.53
2023-02-11T23:08:33.626Z,46.90
2023-02-11T23:11:06.996Z,35.03
2023-02-11T23:13:39.482Z,41.03
2023-02-11T23:16:09.689Z,39.53
2023-02-11T23:18:38.754Z,39.47
2023-02-11T23:21:11.382Z,41.80
2023-02-11T23:23:40.661Z,39.63
2023-02-11T23:26:13.517Z,48.13
2023-02-11T23:28:45.895Z,50.58
2023-02-11T23:31:16.004Z,48.15
2023-02-11T23:33:44.411Z,50.97
2023-02-11T23:36:12.224Z,45.15
2023-02-11T23:38:40.040Z,48.33
2023-02-11T23:41:12.370Z,51.83
2023-02-11T23:43:45.234Z,47.45
2023-02-11T23:46:14.815Z,44.88
2023-02-11T23:48:44.521Z,45.53
2023-02-11T23:51:12.244Z,50.30
2023-02-11T23:53:43.070Z,52.63
2023-02-11T23:56:18.946Z,43.10
2023-02-11T23:58:50.723Z,57.97
